createdAt,value
2023-02-04T00:01:36.644Z,18.32
2023-02-04T00:04:43.162Z,15.83
2023-02-04T00:07:48.817Z,15.65
2023-02-04T00:10:54.066Z,14.85
2023-02-04T00:13:59.719Z,15.43
2023-02-04T00:16:59.310Z,15.43
2023-02-04T00:19:58.321Z,14.47
2023-02-04T00:23:04.531Z,14.18
2023-02-04T00:26:10.667Z,12.35
2023-02-04T00:29:16.792Z,12.15
2023-02-04T00:32:23.166Z,10.18
2023-02-04T00:35:27.915Z,11.55
2023-02-04T00:38:34.426Z,9.83
2023-02-04T00:41:40.153Z,7.85
2023-02-04T00:44:46.092Z,9.95
2023-02-04T00:47:51.563Z,9.80
2023-02-04T00:51:01.832Z,11.20
2023-02-04T00:54:07.830Z,10.30
2023-02-04T00:57:14.501Z,10.00
2023-02-04T01:14:05.815Z,9.90
2023-02-04T01:21:21.843Z,10.32
2023-02-04T01:24:27.927Z,9.48
2023-02-04T01:27:51.415Z,12.63
2023-02-04T01:30:56.895Z,13.58
2023-02-04T01:34:03.356Z,14.60
2023-02-04T01:37:08.457Z,15.43
2023-02-04T01:40:13.607Z,15.08
2023-02-04T01:43:19.403Z,16.27
2023-02-04T01:46:25.875Z,13.90
2023-02-04T01:49:32.099Z,16.80
2023-02-04T01:52:37.476Z,16.48
2023-02-04T01:55:45.677Z,14.95
2023-02-04T01:58:52.454Z,14.47
2023-02-04T02:02:01.609Z,17.42
2023-02-04T02:05:07.041Z,17.50
2023-02-04T02:08:15.810Z,18.07
2023-02-04T02:11:20.672Z,18.15
2023-02-04T02:14:27.318Z,17.07
2023-02-04T02:17:34.369Z,19.70
2023-02-04T02:20:40.841Z,21.02
2023-02-04T02:24:09.024Z,18.87
2023-02-04T02:27:17.225Z,14.80
2023-02-04T02:30:24.660Z,20.37
2023-02-04T02:33:33.328Z,27.67
2023-02-04T02:36:38.689Z,23.18
2023-02-04T02:39:44.604Z,21.40
2023-02-04T02:42:50.327Z,20.02
2023-02-04T02:45:55.835Z,17.82
2023-02-04T02:49:04.866Z,17.82
2023-02-04T02:52:11.730Z,15.30
2023-02-04T02:55:17.183Z,15.65
2023-02-04T02:58:44.828Z,13.20
2023-02-04T03:01:50.512Z,10.93
2023-02-04T03:05:00.102Z,5.60
2023-02-04T03:08:06.735Z,4.35
2023-02-04T03:11:11.806Z,4.10
2023-02-04T03:14:19.381Z,3.95
2023-02-04T03:17:25.676Z,3.72
2023-02-04T03:20:32.099Z,2.83
2023-02-04T03:23:37.249Z,2.72
2023-02-04T03:26:37.197Z,2.77
2023-02-04T03:29:44.608Z,3.20
2023-02-04T03:32:51.505Z,2.90
2023-02-04T03:35:58.829Z,3.47
2023-02-04T03:39:05.570Z,3.80
2023-02-04T03:42:10.814Z,3.58
2023-02-04T03:45:16.281Z,3.60
2023-02-04T03:48:22.181Z,3.52
2023-02-04T03:51:28.599Z,3.80
2023-02-04T03:54:35.066Z,3.30
2023-02-04T03:57:40.937Z,3.98
2023-02-04T04:00:47.187Z,3.80
2023-02-04T04:03:52.937Z,3.70
2023-02-04T04:06:58.373Z,3.75
2023-02-04T04:10:04.337Z,3.30
2023-02-04T04:13:11.056Z,4.15
2023-02-04T04:16:17.271Z,5.10
2023-02-04T04:19:22.282Z,4.75
2023-02-04T04:22:28.345Z,5.55
2023-02-04T04:25:34.350Z,5.58
2023-02-04T04:28:40.057Z,5.28
2023-02-04T04:31:45.717Z,5.05
2023-02-04T04:34:51.556Z,5.40
2023-02-04T04:37:57.375Z,5.67
2023-02-04T04:41:03.005Z,5.70
2023-02-04T04:44:08.329Z,5.90
2023-02-04T04:47:14.473Z,7.62
2023-02-04T04:50:20.181Z,7.83
2023-02-04T04:53:26.083Z,8.13
2023-02-04T04:56:31.871Z,8.60
2023-02-04T04:59:37.512Z,9.90
2023-02-04T05:02:43.156Z,9.13
2023-02-04T05:05:47.763Z,8.53
2023-02-04T05:08:53.605Z,9.13
2023-02-04T05:12:00.712Z,10.43
2023-02-04T05:15:06.005Z,9.43
2023-02-04T05:18:11.221Z,11.08
2023-02-04T05:21:17.781Z,11.93
2023-02-04T05:24:23.639Z,9.40
2023-02-04T05:27:29.700Z,10.28
2023-02-04T05:30:35.933Z,10.40
2023-02-04T05:33:42.460Z,10.08
2023-02-04T05:36:47.232Z,10.60
2023-02-04T05:39:52.480Z,9.65
2023-02-04T05:42:59.472Z,9.13
2023-02-04T05:46:06.946Z,10.38
2023-02-04T05:49:14.456Z,9.95
2023-02-04T05:52:20.794Z,9.53
2023-02-04T05:55:26.888Z,9.10
2023-02-04T05:58:32.767Z,10.53
2023-02-04T06:01:38.414Z,11.73
2023-02-04T06:04:45.011Z,11.12
2023-02-04T06:07:51.473Z,11.33
2023-02-04T06:10:56.780Z,11.08
2023-02-04T06:14:03.285Z,11.68
2023-02-04T06:17:08.130Z,11.93
2023-02-04T06:20:13.785Z,16.67
2023-02-04T06:23:20.206Z,20.00
2023-02-04T06:26:25.811Z,18.00
2023-02-04T06:29:31.241Z,21.15
2023-02-04T06:32:30.098Z,21.02
2023-02-04T06:35:36.889Z,16.33
2023-02-04T06:38:42.535Z,21.40
2023-02-04T06:41:48.698Z,23.60
2023-02-04T06:44:53.904Z,20.52
2023-02-04T06:47:59.928Z,22.77
2023-02-04T06:50:59.463Z,22.22
2023-02-04T06:53:54.231Z,21.70
2023-02-04T06:57:01.039Z,22.90
2023-02-04T07:00:07.616Z,22.87
2023-02-04T07:03:14.339Z,22.95
2023-02-04T07:06:22.158Z,23.02
2023-02-04T07:09:28.211Z,21.42
2023-02-04T07:12:33.032Z,23.45
2023-02-04T07:15:38.766Z,23.10
2023-02-04T07:18:45.057Z,23.22
2023-02-04T07:21:51.188Z,19.52
2023-02-04T07:24:56.368Z,20.02
2023-02-04T07:28:03.484Z,20.48
2023-02-04T07:31:09.503Z,19.62
2023-02-04T07:34:15.227Z,19.42
2023-02-04T07:37:22.006Z,19.10
2023-02-04T07:40:29.113Z,20.15
2023-02-04T07:43:35.932Z,19.32
2023-02-04T07:46:40.776Z,20.88
2023-02-04T07:49:46.267Z,20.92
2023-02-04T07:52:51.504Z,18.00
2023-02-04T07:55:58.443Z,16.42
2023-02-04T07:59:04.152Z,16.30
2023-02-04T08:02:09.833Z,16.25
2023-02-04T08:05:16.195Z,16.20
2023-02-04T08:08:22.148Z,17.50
2023-02-04T08:11:27.219Z,15.10
2023-02-04T08:14:32.835Z,15.85
2023-02-04T08:17:38.686Z,13.58
2023-02-04T08:20:44.032Z,13.30
2023-02-04T08:23:50.734Z,13.58
2023-02-04T08:26:56.327Z,15.20
2023-02-04T08:30:02.324Z,14.35
2023-02-04T08:33:08.541Z,13.38
2023-02-04T08:36:14.394Z,13.03
2023-02-04T08:39:20.960Z,11.97
2023-02-04T08:42:25.444Z,12.37
2023-02-04T08:45:31.545Z,11.35
2023-02-04T08:48:38.138Z,10.10
2023-02-04T08:51:44.403Z,9.10
2023-02-04T08:54:50.327Z,8.93
2023-02-04T08:57:56.082Z,9.55
2023-02-04T09:01:01.927Z,11.48
2023-02-04T09:04:08.186Z,7.87
2023-02-04T09:07:14.233Z,7.78
2023-02-04T09:10:21.522Z,7.97
2023-02-04T09:13:26.613Z,7.75
2023-02-04T09:16:32.175Z,8.38
2023-02-04T09:19:37.564Z,8.98
2023-02-04T09:22:44.313Z,9.70
2023-02-04T09:25:49.565Z,6.50
2023-02-04T09:28:56.141Z,6.95
2023-02-04T09:32:01.832Z,5.85
2023-02-04T09:35:07.548Z,8.23
2023-02-04T09:38:12.585Z,7.53
2023-02-04T09:41:23.167Z,7.35
2023-02-04T09:47:36.712Z,7.80
2023-02-04T09:50:42.525Z,6.83
2023-02-04T09:53:48.204Z,7.65
2023-02-04T09:56:55.019Z,9.08
2023-02-04T10:00:04.458Z,8.45
2023-02-04T10:03:14.348Z,8.18
2023-02-04T10:09:27.986Z,6.87
2023-02-04T10:12:34.704Z,6.78
2023-02-04T10:15:39.734Z,6.85
2023-02-04T10:18:47.157Z,6.45
2023-02-04T10:21:53.608Z,6.08
2023-02-04T10:25:00.090Z,5.72
2023-02-04T10:28:15.151Z,5.92
2023-02-04T10:31:44.305Z,5.72
2023-02-04T10:34:52.776Z,6.45
2023-02-04T10:37:59.368Z,6.17
2023-02-04T10:41:19.790Z,5.90
2023-02-04T10:44:30.206Z,5.35
2023-02-04T10:47:31.991Z,5.25
2023-02-04T10:50:33.926Z,4.97
2023-02-04T10:53:51.026Z,5.45
2023-02-04T10:56:56.924Z,5.33
2023-02-04T11:00:06.112Z,5.40
2023-02-04T11:03:15.627Z,6.37
2023-02-04T11:09:32.511Z,6.62
2023-02-04T11:12:58.212Z,7.60
2023-02-04T11:16:07.279Z,6.10
2023-02-04T11:19:14.669Z,5.85
2023-02-04T11:22:37.402Z,5.92
2023-02-04T11:25:51.347Z,4.50
2023-02-04T11:29:16.132Z,4.80
2023-02-04T11:32:49.781Z,4.90
2023-02-04T11:35:56.406Z,4.90
2023-02-04T11:39:03.284Z,4.30
2023-02-04T11:42:08.766Z,4.37
2023-02-04T11:45:19.281Z,5.05
2023-02-04T11:48:34.738Z,3.98
2023-02-04T11:51:47.913Z,4.70
2023-02-04T11:54:52.955Z,3.87
2023-02-04T11:57:59.571Z,4.08
2023-02-04T12:01:05.062Z,3.98
2023-02-04T12:04:20.174Z,4.45
2023-02-04T12:07:27.202Z,4.80
2023-02-04T12:10:39.749Z,3.98
2023-02-04T12:13:47.493Z,3.67
2023-02-04T12:17:05.619Z,4.35
2023-02-04T12:20:11.373Z,4.08
2023-02-04T12:23:17.658Z,3.50
2023-02-04T12:26:24.200Z,3.60
2023-02-04T12:29:29.671Z,3.98
2023-02-04T12:32:36.066Z,4.08
2023-02-04T12:35:42.110Z,4.28
2023-02-04T12:38:48.498Z,4.25
2023-02-04T12:41:54.569Z,3.75
2023-02-04T12:45:00.794Z,3.62
2023-02-04T12:48:06.997Z,3.98
2023-02-04T12:51:12.826Z,3.42
2023-02-04T12:54:19.814Z,3.77
2023-02-04T12:57:27.120Z,3.65
2023-02-04T13:00:34.850Z,3.75
2023-02-04T13:03:42.191Z,3.98
2023-02-04T13:06:47.674Z,3.77
2023-02-04T13:09:53.167Z,3.75
2023-02-04T13:12:59.922Z,3.85
2023-02-04T13:16:06.463Z,4.30
2023-02-04T13:19:05.038Z,3.67
2023-02-04T13:21:51.301Z,4.75
2023-02-04T13:24:44.372Z,4.75
2023-02-04T13:27:39.113Z,4.45
2023-02-04T13:30:44.854Z,4.58
2023-02-04T13:33:50.461Z,4.97
2023-02-04T13:36:56.507Z,4.37
2023-02-04T13:40:02.895Z,5.22
2023-02-04T13:43:09.483Z,8.88
2023-02-04T13:46:18.015Z,5.50
2023-02-04T13:49:24.835Z,5.10
2023-02-04T13:52:30.819Z,5.85
2023-02-04T13:55:35.587Z,5.45
2023-02-04T13:58:41.808Z,6.85
2023-02-04T14:01:48.327Z,5.25
2023-02-04T14:04:53.988Z,4.85
2023-02-04T14:08:00.466Z,4.50
2023-02-04T14:11:06.791Z,4.78
2023-02-04T14:14:11.785Z,5.35
2023-02-04T14:17:17.151Z,5.40
2023-02-04T14:20:24.009Z,5.40
2023-02-04T14:23:30.140Z,4.37
2023-02-04T14:26:36.607Z,4.85
2023-02-04T14:29:43.421Z,4.67
2023-02-04T14:32:49.766Z,4.55
2023-02-04T14:35:55.248Z,5.03
2023-02-04T14:39:01.156Z,4.42
2023-02-04T14:42:07.443Z,4.97
2023-02-04T14:45:15.078Z,4.62
2023-02-04T14:48:22.730Z,4.65
2023-02-04T14:51:28.097Z,4.65
2023-02-04T14:54:33.935Z,5.15
2023-02-04T14:57:40.859Z,5.08
2023-02-04T15:00:46.743Z,6.22
2023-02-04T15:03:46.648Z,6.00
2023-02-04T15:09:51.871Z,7.37
2023-02-04T15:12:57.940Z,8.33
2023-02-04T15:16:05.503Z,8.05
2023-02-04T15:19:11.642Z,8.80
2023-02-04T15:22:16.514Z,7.30
2023-02-04T15:25:21.816Z,7.97
2023-02-04T15:28:27.560Z,7.62
2023-02-04T15:31:34.198Z,8.23
2023-02-04T15:34:40.525Z,7.80
2023-02-04T15:37:46.394Z,8.00
2023-02-04T15:40:53.123Z,8.28
2023-02-04T15:43:58.956Z,8.60
2023-02-04T15:47:06.431Z,8.80
2023-02-04T15:50:15.460Z,9.70
2023-02-04T15:53:20.937Z,9.88
2023-02-04T15:56:26.163Z,8.73
2023-02-04T15:59:31.460Z,8.60
2023-02-04T16:02:36.907Z,9.18
2023-02-04T16:05:42.836Z,9.88
2023-02-04T16:08:49.511Z,11.43
2023-02-04T16:11:56.418Z,10.90
2023-02-04T16:15:01.928Z,8.80
2023-02-04T16:18:02.505Z,8.90
2023-02-04T16:20:55.084Z,8.40
2023-02-04T16:24:01.173Z,7.75
2023-02-04T16:27:07.636Z,7.87
2023-02-04T16:30:12.719Z,7.87
2023-02-04T16:33:19.188Z,6.92
2023-02-04T16:36:20.881Z,7.33
2023-02-04T16:39:07.792Z,7.12
2023-02-04T16:42:00.585Z,6.28
2023-02-04T16:44:46.357Z,6.42
2023-02-04T16:47:38.822Z,6.53
2023-02-04T16:50:26.051Z,7.62
2023-02-04T16:53:20.724Z,7.20
2023-02-04T16:56:05.842Z,6.62
2023-02-04T16:58:58.348Z,7.28
2023-02-04T17:01:52.812Z,7.78
2023-02-04T17:05:00.024Z,8.03
2023-02-04T17:08:06.401Z,8.13
2023-02-04T17:11:23.826Z,9.33
2023-02-04T17:14:30.699Z,9.38
2023-02-04T17:17:36.694Z,9.10
2023-02-04T17:20:42.591Z,9.70
2023-02-04T17:23:49.060Z,10.18
2023-02-04T17:26:54.594Z,9.48
2023-02-04T17:29:59.643Z,10.43
2023-02-04T17:33:05.012Z,11.12
2023-02-04T17:36:10.128Z,11.35
2023-02-04T17:39:15.448Z,11.53
2023-02-04T17:42:21.198Z,11.20
2023-02-04T17:45:27.689Z,10.53
2023-02-04T17:48:33.199Z,11.00
2023-02-04T17:51:39.534Z,11.90
2023-02-04T17:54:45.234Z,10.38
2023-02-04T17:57:51.505Z,10.45
2023-02-04T18:00:59.532Z,18.87
2023-02-04T18:04:06.375Z,18.60
2023-02-04T18:07:11.278Z,12.50
2023-02-04T18:10:24.455Z,11.95
2023-02-04T18:13:45.954Z,13.38
2023-02-04T18:16:51.156Z,13.08
2023-02-04T18:19:57.236Z,12.50
2023-02-04T18:23:08.944Z,13.38
2023-02-04T18:26:27.970Z,13.55
2023-02-04T18:29:47.918Z,13.75
2023-02-04T18:36:03.612Z,13.13
2023-02-04T18:39:09.500Z,13.48
2023-02-04T18:42:16.369Z,12.45
2023-02-04T18:45:45.033Z,12.25
2023-02-04T18:49:15.275Z,12.00
2023-02-04T18:52:34.206Z,12.05
2023-02-04T18:55:49.952Z,11.00
2023-02-04T18:58:58.515Z,10.88
2023-02-04T19:02:04.840Z,7.53
2023-02-04T19:05:13.816Z,10.35
2023-02-04T19:08:28.959Z,11.65
2023-02-04T19:12:00.353Z,11.40
2023-02-04T19:15:06.740Z,11.15
2023-02-04T19:18:13.670Z,11.93
2023-02-04T19:21:40.060Z,10.82
2023-02-04T19:24:45.105Z,12.35
2023-02-04T19:27:51.000Z,10.65
2023-02-04T19:30:57.135Z,11.12
2023-02-04T19:34:03.175Z,11.03
2023-02-04T19:37:10.451Z,11.95
2023-02-04T19:40:16.276Z,11.43
2023-02-04T19:43:50.582Z,10.85
2023-02-04T19:46:58.365Z,11.73
2023-02-04T19:50:03.299Z,11.43
2023-02-04T19:53:32.261Z,10.28
2023-02-04T19:56:53.264Z,11.73
2023-02-04T19:59:59.202Z,11.80
2023-02-04T20:03:08.032Z,11.35
2023-02-04T20:06:39.893Z,12.18
2023-02-04T20:09:46.371Z,10.58
2023-02-04T20:12:53.489Z,10.98
2023-02-04T20:15:59.108Z,9.88
2023-02-04T20:19:07.159Z,11.50
2023-02-04T20:22:36.972Z,11.93
2023-02-04T20:29:04.542Z,10.88
2023-02-04T20:32:10.697Z,12.03
2023-02-04T20:35:30.498Z,11.65
2023-02-04T20:38:35.807Z,12.00
2023-02-04T20:41:41.410Z,11.85
2023-02-04T20:44:54.119Z,10.35
2023-02-04T20:47:59.545Z,11.78
2023-02-04T20:51:08.164Z,11.22
2023-02-04T20:54:15.997Z,11.22
2023-02-04T20:57:26.798Z,12.43
2023-02-04T21:00:48.863Z,11.40
2023-02-04T21:03:54.627Z,11.12
2023-02-04T21:06:59.506Z,11.97
2023-02-04T21:10:05.503Z,10.55
2023-02-04T21:13:03.617Z,10.93
2023-02-04T21:16:10.146Z,11.10
2023-02-04T21:19:17.430Z,12.00
2023-02-04T21:22:23.357Z,11.83
2023-02-04T21:25:29.031Z,12.70
2023-02-04T21:28:35.271Z,12.75
2023-02-04T21:31:40.584Z,12.65
2023-02-04T21:34:46.125Z,14.00
2023-02-04T21:37:52.172Z,13.75
2023-02-04T21:40:57.725Z,14.18
2023-02-04T21:44:04.234Z,15.58
2023-02-04T21:47:09.400Z,15.08
2023-02-04T21:50:15.829Z,15.93
2023-02-04T21:53:23.187Z,16.00
2023-02-04T21:56:27.749Z,16.45
2023-02-04T21:59:32.334Z,16.77
2023-02-04T22:02:38.932Z,15.75
2023-02-04T22:05:45.177Z,15.85
2023-02-04T22:08:44.827Z,17.62
2023-02-04T22:11:30.485Z,17.65
2023-02-04T22:14:23.607Z,18.07
2023-02-04T22:17:15.613Z,18.40
2023-02-04T22:20:24.537Z,16.93
2023-02-04T22:23:29.259Z,17.67
2023-02-04T22:26:34.877Z,19.12
2023-02-04T22:29:40.859Z,19.48
2023-02-04T22:32:45.929Z,17.48
2023-02-04T22:35:52.703Z,17.85
2023-02-04T22:38:58.709Z,19.87
2023-02-04T22:42:04.592Z,19.90
2023-02-04T22:45:11.000Z,19.73
2023-02-04T22:48:17.507Z,19.50
2023-02-04T22:51:22.516Z,19.55
2023-02-04T22:54:28.128Z,20.30
2023-02-04T22:57:33.755Z,21.23
2023-02-04T23:00:39.105Z,19.35
2023-02-04T23:03:44.294Z,18.07
2023-02-04T23:06:51.696Z,18.87
2023-02-04T23:09:58.123Z,20.30
2023-02-04T23:13:04.470Z,19.87
2023-02-04T23:16:10.447Z,19.82
2023-02-04T23:19:17.734Z,20.02
2023-02-04T23:22:23.748Z,19.67
2023-02-04T23:25:29.552Z,21.42
2023-02-04T23:28:35.263Z,19.37
2023-02-04T23:31:40.699Z,20.88
2023-02-04T23:34:47.698Z,20.32
2023-02-04T23:37:54.438Z,22.27
2023-02-04T23:41:00.186Z,20.32
2023-02-04T23:44:07.168Z,20.68
2023-02-04T23:47:12.889Z,20.75
2023-02-04T23:50:19.757Z,20.32
2023-02-04T23:53:26.700Z,21.62
2023-02-04T23:56:33.071Z,20.75
2023-02-04T23:59:39.225Z,21.15
